Time;durP1;ratioP1;P1;durP2;ratioP2;P2;SDS_P1;SDS_P2;PMS_P1;PMS_P2;Temp;Humidity;BMP_temperature;BMP_pressure;BME280_temperature;BME280_humidity;BME280_pressure;Samples;Min_cycle;Max_cycle;Signal;HPM_P1;HPM_P2
2024/04/03 00:00:28;;;;;;;2.88;1.10;;;;;;;;;;2073285;28;20053;-69
2024/04/03 00:01:30;;;;;;;4.22;1.13;;;;;;;;;;2073149;28;20076;-72
2024/04/03 00:02:31;;;;;;;4.60;0.95;;;;;;;;;;2073229;28;20021;-72
2024/04/03 00:03:32;;;;;;;3.38;1.13;;;;;;;;;;2073228;28;20022;-69
2024/04/03 00:04:35;;;;;;;5.47;1.20;;;;;;;;;;2073284;28;20037;-70
2024/04/03 00:05:37;;;;;;;6.13;1.30;;;;;;;;;;2072324;28;20080;-73
2024/04/03 00:06:39;;;;;;;3.08;1.20;;;;;;;;;;2073371;28;20030;-70
2024/04/03 00:07:40;;;;;;;3.40;1.00;;;;;;;;;;2073184;28;20069;-70
2024/04/03 00:08:41;;;;;;;2.05;1.10;;;;;;;;;;2073279;28;20096;-72
2024/04/03 00:09:43;;;;;;;6.72;1.40;;;;;;;;;;2072413;28;20017;-73
2024/04/03 00:10:44;;;;;;;3.38;1.27;;;;;;;;;;2073294;28;20104;-73
2024/04/03 00:11:45;;;;;;;3.53;1.10;;;;;;;;;;2073286;28;20022;-71
2024/04/03 00:12:47;;;;;;;3.30;0.90;;;;;;;;;;2073192;28;20053;-71
2024/04/03 00:13:48;;;;;;;4.07;1.33;;;;;;;;;;2073147;28;20033;-70
2024/04/03 00:14:50;;;;;;;3.85;0.90;;;;;;;;;;2073355;28;20533;-69
2024/04/03 00:15:51;;;;;;;2.78;0.90;;;;;;;;;;2073172;28;20101;-68
2024/04/03 00:16:52;;;;;;;2.92;0.80;;;;;;;;;;2073414;28;20083;-72
2024/04/03 00:17:55;;;;;;;2.50;0.80;;;;;;;;;;2073339;28;20052;-72
2024/04/03 00:18:56;;;;;;;6.18;1.27;;;;;;;;;;2073284;28;20145;-71
2024/04/03 00:19:57;;;;;;;5.32;1.20;;;;;;;;;;2072766;28;20038;-72
2024/04/03 00:21:00;;;;;;;3.67;0.80;;;;;;;;;;2072700;28;20028;-72
2024/04/03 00:22:01;;;;;;;5.18;1.55;;;;;;;;;;2073328;28;20151;-72
2024/04/03 00:23:04;;;;;;;3.63;1.10;;;;;;;;;;2070653;28;20511;-72
2024/04/03 00:24:05;;;;;;;3.08;0.82;;;;;;;;;;2073360;28;20018;-72
2024/04/03 00:25:06;;;;;;;4.88;1.10;;;;;;;;;;2073226;28;20116;-72
2024/04/03 00:26:08;;;;;;;6.43;1.02;;;;;;;;;;2073031;28;20026;-72
2024/04/03 00:27:09;;;;;;;5.32;1.20;;;;;;;;;;2073081;28;20506;-72
2024/04/03 00:28:10;;;;;;;3.47;0.80;;;;;;;;;;2073536;28;20033;-72
2024/04/03 00:29:13;;;;;;;3.08;0.93;;;;;;;;;;2073255;28;20030;-72
2024/04/03 00:30:14;;;;;;;3.65;1.10;;;;;;;;;;2073248;28;20029;-71
2024/04/03 00:31:15;;;;;;;3.63;1.00;;;;;;;;;;2072224;28;20034;-70
2024/04/03 00:32:17;;;;;;;3.28;1.25;;;;;;;;;;2072444;28;20021;-71
2024/04/03 00:33:18;;;;;;;4.32;0.98;;;;;;;;;;2073170;28;20033;-72
2024/04/03 00:34:20;;;;;;;1.63;0.93;;;;;;;;;;2073126;28;20494;-73
2024/04/03 00:35:21;;;;;;;3.45;1.00;;;;;;;;;;2073083;28;20026;-72
2024/04/03 00:36:22;;;;;;;5.50;1.40;;;;;;;;;;2073115;28;20022;-70
2024/04/03 00:37:24;;;;;;;4.28;0.95;;;;;;;;;;2070052;28;20124;-70
2024/04/03 00:38:26;;;;;;;3.60;1.50;;;;;;;;;;2072803;28;20024;-70
2024/04/03 00:39:27;;;;;;;2.92;0.90;;;;;;;;;;2073137;28;20030;-72
2024/04/03 00:40:28;;;;;;;3.47;1.00;;;;;;;;;;2071115;28;20029;-71
2024/04/03 00:41:30;;;;;;;3.17;0.95;;;;;;;;;;2073132;28;20050;-73
2024/04/03 00:42:31;;;;;;;9.20;1.35;;;;;;;;;;2073157;28;20021;-70
2024/04/03 00:43:33;;;;;;;3.05;1.10;;;;;;;;;;2072991;28;20486;-72
2024/04/03 00:44:34;;;;;;;6.13;1.10;;;;;;;;;;2073062;28;20085;-73
2024/04/03 00:45:35;;;;;;;5.47;1.20;;;;;;;;;;2073068;28;20117;-74
2024/04/03 00:46:37;;;;;;;6.80;1.45;;;;;;;;;;2073193;28;20056;-74
2024/04/03 00:47:38;;;;;;;3.03;1.05;;;;;;;;;;2070785;28;20407;-73
2024/04/03 00:48:40;;;;;;;5.00;1.50;;;;;;;;;;2070468;28;20430;-72
2024/04/03 00:49:43;;;;;;;4.10;1.27;;;;;;;;;;2072724;28;20072;-68
2024/04/03 00:50:46;;;;;;;5.28;1.30;;;;;;;;;;2073310;28;20025;-72
2024/04/03 00:51:50;;;;;;;4.22;1.40;;;;;;;;;;2072374;28;20109;-72
2024/04/03 00:52:51;;;;;;;5.45;1.30;;;;;;;;;;2070851;28;20032;-72
2024/04/03 00:53:53;;;;;;;7.22;1.23;;;;;;;;;;2071420;28;20092;-73
2024/04/03 00:54:54;;;;;;;9.55;1.55;;;;;;;;;;2071429;28;20018;-74
2024/04/03 00:55:55;;;;;;;5.05;1.55;;;;;;;;;;2072896;28;20445;-72
2024/04/03 00:56:57;;;;;;;5.82;1.60;;;;;;;;;;2072376;28;20056;-71
2024/04/03 00:57:58;;;;;;;5.68;1.60;;;;;;;;;;2073215;28;20481;-73
2024/04/03 00:59:00;;;;;;;6.32;1.50;;;;;;;;;;2073222;28;20025;-74
2024/04/03 01:00:01;;;;;;;4.07;1.35;;;;;;;;;;2073615;28;20026;-70
2024/04/03 01:01:02;;;;;;;3.60;1.20;;;;;;;;;;2072845;28;20014;-74
2024/04/03 01:02:04;;;;;;;6.00;1.52;;;;;;;;;;2073095;28;20045;-74
2024/04/03 01:03:06;;;;;;;5.20;1.58;;;;;;;;;;2072629;28;20018;-73
2024/04/03 01:04:08;;;;;;;3.10;1.20;;;;;;;;;;2073192;28;20037;-73
2024/04/03 01:05:09;;;;;;;7.72;1.90;;;;;;;;;;2072068;28;20090;-69
2024/04/03 01:06:11;;;;;;;5.40;1.95;;;;;;;;;;2073164;28;20034;-73
2024/04/03 01:07:12;;;;;;;4.30;1.67;;;;;;;;;;2072654;28;20026;-72
2024/04/03 01:08:14;;;;;;;4.82;1.40;;;;;;;;;;2069939;28;20064;-73
2024/04/03 01:09:15;;;;;;;3.17;1.25;;;;;;;;;;2073049;28;20026;-72
2024/04/03 01:10:16;;;;;;;6.68;1.67;;;;;;;;;;2072341;28;20096;-73
2024/04/03 01:11:18;;;;;;;3.67;1.50;;;;;;;;;;2072928;28;20590;-70
2024/04/03 01:12:21;;;;;;;5.20;1.85;;;;;;;;;;2072903;28;20034;-72
2024/04/03 01:13:23;;;;;;;6.07;1.88;;;;;;;;;;2072913;28;20061;-71
2024/04/03 01:14:24;;;;;;;8.70;1.63;;;;;;;;;;2073222;28;20080;-71
2024/04/03 01:15:26;;;;;;;8.07;1.83;;;;;;;;;;2072477;28;20038;-72
2024/04/03 01:16:28;;;;;;;9.30;1.70;;;;;;;;;;2072376;28;20045;-71
2024/04/03 01:17:31;;;;;;;5.05;2.05;;;;;;;;;;2073052;28;20068;-71
2024/04/03 01:18:34;;;;;;;5.20;1.40;;;;;;;;;;2070537;28;20029;-71
2024/04/03 01:19:35;;;;;;;6.80;1.77;;;;;;;;;;2073181;28;20064;-72
2024/04/03 01:20:36;;;;;;;8.80;1.98;;;;;;;;;;2073166;28;20026;-71
2024/04/03 01:21:38;;;;;;;7.82;1.38;;;;;;;;;;2072576;28;20030;-72
2024/04/03 01:22:39;;;;;;;6.40;1.38;;;;;;;;;;2073120;28;20017;-72
2024/04/03 01:23:40;;;;;;;5.00;1.48;;;;;;;;;;2073036;28;20565;-72
2024/04/03 01:24:43;;;;;;;4.40;1.38;;;;;;;;;;2073077;28;20010;-71
2024/04/03 01:25:44;;;;;;;7.07;1.77;;;;;;;;;;2070516;28;20351;-73
2024/04/03 01:26:46;;;;;;;4.40;1.40;;;;;;;;;;2072866;28;20084;-73
2024/04/03 01:27:48;;;;;;;6.13;0.98;;;;;;;;;;2073186;28;20034;-73
2024/04/03 01:28:50;;;;;;;4.25;1.30;;;;;;;;;;2073332;28;20022;-73
2024/04/03 01:29:51;;;;;;;4.05;1.30;;;;;;;;;;2073326;28;20030;-71
2024/04/03 01:30:54;;;;;;;4.03;1.25;;;;;;;;;;2070526;28;20426;-72
2024/04/03 01:31:55;;;;;;;6.40;1.17;;;;;;;;;;2073002;28;20029;-72
2024/04/03 01:32:56;;;;;;;3.42;1.30;;;;;;;;;;2073057;28;20025;-71
2024/04/03 01:33:58;;;;;;;6.20;1.30;;;;;;;;;;2073143;28;20094;-73
2024/04/03 01:34:59;;;;;;;5.25;1.20;;;;;;;;;;2073131;28;20030;-72
2024/04/03 01:36:01;;;;;;;4.28;1.48;;;;;;;;;;2073624;28;20049;-71
2024/04/03 01:37:02;;;;;;;5.85;1.38;;;;;;;;;;2073741;28;20017;-72
2024/04/03 01:38:04;;;;;;;3.90;1.40;;;;;;;;;;2071295;28;20037;-72
2024/04/03 01:39:09;;;;;;;4.40;1.73;;;;;;;;;;2073646;28;20018;-72
2024/04/03 01:40:14;;;;;;;4.50;1.27;;;;;;;;;;2070307;28;20407;-72
2024/04/03 01:41:15;;;;;;;5.97;1.30;;;;;;;;;;2073108;28;20117;-73
2024/04/03 01:42:17;;;;;;;4.63;1.40;;;;;;;;;;2073576;28;20018;-73
2024/04/03 01:43:19;;;;;;;4.60;1.38;;;;;;;;;;2072510;28;20025;-73
2024/04/03 01:44:20;;;;;;;2.85;1.30;;;;;;;;;;2072927;28;20080;-73
2024/04/03 01:45:22;;;;;;;5.90;1.80;;;;;;;;;;2073271;28;20045;-72
2024/04/03 01:46:23;;;;;;;5.90;1.52;;;;;;;;;;2070767;28;20090;-74
2024/04/03 01:47:25;;;;;;;4.80;1.42;;;;;;;;;;2073187;28;20022;-73
2024/04/03 01:48:27;;;;;;;5.57;1.38;;;;;;;;;;2073192;28;20105;-72
2024/04/03 01:49:29;;;;;;;7.97;1.45;;;;;;;;;;2073063;28;20097;-72
2024/04/03 01:50:38;;;;;;;7.63;1.58;;;;;;;;;;2073035;28;20061;-72
2024/04/03 01:51:39;;;;;;;8.80;1.65;;;;;;;;;;2071778;28;20021;-71
2024/04/03 01:52:40;;;;;;;4.57;1.15;;;;;;;;;;2072924;28;20471;-73
2024/04/03 01:53:42;;;;;;;7.97;1.48;;;;;;;;;;2072869;28;20029;-72
2024/04/03 01:54:43;;;;;;;7.20;1.80;;;;;;;;;;2072983;28;20024;-72
2024/04/03 01:55:55;;;;;;;6.00;1.48;;;;;;;;;;2072273;28;20018;-71
2024/04/03 01:56:57;;;;;;;;;;;;;;;;;;2070993;28;20026;-73
2024/04/03 01:57:58;;;;;;;6.07;1.40;;;;;;;;;;2072385;28;19909;-72
2024/04/03 01:58:59;;;;;;;9.45;2.17;;;;;;;;;;2072994;28;20022;-72
2024/04/03 02:00:01;;;;;;;8.98;1.77;;;;;;;;;;2072608;28;20109;-71
2024/04/03 02:01:02;;;;;;;4.80;1.63;;;;;;;;;;2072424;28;20030;-72
2024/04/03 02:02:04;;;;;;;6.18;1.80;;;;;;;;;;2070552;28;20064;-73
2024/04/03 02:03:05;;;;;;;7.10;1.50;;;;;;;;;;2072955;28;20068;-70
2024/04/03 02:04:06;;;;;;;4.95;1.85;;;;;;;;;;2072860;28;20025;-70
2024/04/03 02:05:08;;;;;;;5.60;1.80;;;;;;;;;;2072866;28;20017;-72
2024/04/03 02:06:09;;;;;;;5.18;1.73;;;;;;;;;;2072853;28;20052;-72
2024/04/03 02:07:11;;;;;;;8.23;1.85;;;;;;;;;;2072800;28;20452;-71
2024/04/03 02:08:13;;;;;;;7.43;1.90;;;;;;;;;;2072825;28;20037;-72
2024/04/03 02:09:14;;;;;;;4.53;1.60;;;;;;;;;;2072886;28;20026;-73
2024/04/03 02:10:15;;;;;;;3.55;1.45;;;;;;;;;;2072038;28;20024;-71
2024/04/03 02:11:18;;;;;;;7.78;1.80;;;;;;;;;;2072741;28;20018;-70
2024/04/03 02:12:20;;;;;;;4.15;1.58;;;;;;;;;;2072668;28;20018;-71
2024/04/03 02:13:22;;;;;;;5.85;1.88;;;;;;;;;;2072883;28;20102;-71
2024/04/03 02:14:23;;;;;;;4.40;1.30;;;;;;;;;;2072758;28;20459;-71
2024/04/03 02:15:24;;;;;;;5.03;1.92;;;;;;;;;;2072757;28;20110;-71
2024/04/03 02:16:29;;;;;;;5.32;2.05;;;;;;;;;;2072304;28;20069;-70
2024/04/03 02:17:31;;;;;;;8.40;2.13;;;;;;;;;;2072021;28;20477;-72
2024/04/03 02:18:32;;;;;;;7.15;2.25;;;;;;;;;;2072839;28;20015;-72
2024/04/03 02:19:35;;;;;;;9.80;2.22;;;;;;;;;;2069225;28;20038;-71
2024/04/03 02:20:36;;;;;;;6.60;2.20;;;;;;;;;;2072189;28;20019;-71
2024/04/03 02:21:38;;;;;;;6.78;2.03;;;;;;;;;;2072128;28;20022;-74
2024/04/03 02:22:39;;;;;;;8.55;2.08;;;;;;;;;;2064298;28;20442;-72
2024/04/03 02:23:41;;;;;;;7.50;1.90;;;;;;;;;;2072140;28;20029;-74
2024/04/03 02:24:42;;;;;;;9.65;2.22;;;;;;;;;;2072341;28;20104;-70
2024/04/03 02:25:43;;;;;;;6.78;2.42;;;;;;;;;;2069471;28;20041;-74
2024/04/03 02:26:45;;;;;;;11.75;2.03;;;;;;;;;;2072697;28;20026;-74
2024/04/03 02:27:46;;;;;;;4.90;1.67;;;;;;;;;;2080270;28;20032;-72
2024/04/03 02:28:47;;;;;;;5.57;1.65;;;;;;;;;;2080516;28;20033;-71
2024/04/03 02:29:49;;;;;;;5.47;1.92;;;;;;;;;;2074203;28;20486;-76
2024/04/03 02:30:59;;;;;;;7.80;1.88;;;;;;;;;;2074242;28;20033;-74
2024/04/03 02:32:00;;;;;;;3.80;1.80;;;;;;;;;;2073562;28;20022;-73
2024/04/03 02:33:03;;;;;;;11.25;2.05;;;;;;;;;;2074247;28;20445;-73
2024/04/03 02:34:04;;;;;;;4.75;2.08;;;;;;;;;;2071856;28;20087;-72
2024/04/03 02:35:07;;;;;;;3.83;1.63;;;;;;;;;;2074360;28;20037;-73
2024/04/03 02:36:09;;;;;;;5.57;1.88;;;;;;;;;;2074242;28;20108;-72
2024/04/03 02:37:10;;;;;;;7.30;1.70;;;;;;;;;;2074217;28;20374;-72
2024/04/03 02:38:13;;;;;;;9.05;2.35;;;;;;;;;;2074246;28;20017;-72
2024/04/03 02:39:14;;;;;;;8.43;1.63;;;;;;;;;;2074122;28;20037;-73
2024/04/03 02:40:15;;;;;;;6.00;1.75;;;;;;;;;;2073361;28;20022;-72
2024/04/03 02:41:17;;;;;;;4.15;2.00;;;;;;;;;;2074171;28;20025;-71
2024/04/03 02:42:18;;;;;;;6.15;2.30;;;;;;;;;;2074061;28;20483;-72
2024/04/03 02:43:20;;;;;;;7.13;2.05;;;;;;;;;;2074172;28;20010;-73
2024/04/03 02:44:21;;;;;;;4.03;1.77;;;;;;;;;;2073936;28;20038;-73
2024/04/03 02:45:22;;;;;;;4.28;1.75;;;;;;;;;;2074051;28;20502;-71
2024/04/03 02:46:24;;;;;;;4.75;2.08;;;;;;;;;;2074092;28;20101;-71
2024/04/03 02:47:26;;;;;;;7.45;2.03;;;;;;;;;;2073995;28;20383;-72
2024/04/03 02:48:27;;;;;;;8.95;1.80;;;;;;;;;;2074075;28;20098;-72
2024/04/03 02:49:28;;;;;;;7.10;1.80;;;;;;;;;;2074192;28;20017;-72
2024/04/03 02:50:31;;;;;;;6.90;1.60;;;;;;;;;;2074097;28;20530;-72
2024/04/03 02:51:32;;;;;;;7.45;1.92;;;;;;;;;;2074083;28;20066;-72
2024/04/03 02:52:34;;;;;;;3.33;1.38;;;;;;;;;;2074113;28;20087;-72
2024/04/03 02:53:35;;;;;;;6.03;1.92;;;;;;;;;;2074047;28;20033;-72
2024/04/03 02:54:36;;;;;;;5.30;2.05;;;;;;;;;;2074089;28;20018;-71
2024/04/03 02:55:38;;;;;;;3.95;1.85;;;;;;;;;;2074071;28;20026;-73
2024/04/03 02:56:39;;;;;;;8.55;2.17;;;;;;;;;;2073403;28;20026;-72
2024/04/03 02:57:40;;;;;;;4.45;1.70;;;;;;;;;;2074001;28;20018;-73
2024/04/03 02:58:42;;;;;;;9.38;1.90;;;;;;;;;;2073942;28;20447;-72
2024/04/03 02:59:44;;;;;;;5.32;1.70;;;;;;;;;;2071418;28;20024;-70
2024/04/03 03:00:45;;;;;;;8.20;2.03;;;;;;;;;;2074024;28;20028;-70
2024/04/03 03:01:46;;;;;;;6.72;1.52;;;;;;;;;;2074071;28;20025;-73
2024/04/03 03:02:48;;;;;;;8.27;1.88;;;;;;;;;;2074002;28;20470;-73
2024/04/03 03:03:49;;;;;;;7.15;2.10;;;;;;;;;;2074046;28;20180;-72
2024/04/03 03:04:51;;;;;;;9.55;1.92;;;;;;;;;;2074058;28;20033;-72
2024/04/03 03:05:54;;;;;;;4.80;1.67;;;;;;;;;;2073828;28;20540;-73
2024/04/03 03:06:55;;;;;;;9.27;2.10;;;;;;;;;;2071459;28;20506;-73
2024/04/03 03:07:56;;;;;;;5.43;1.70;;;;;;;;;;2073875;28;20105;-72
2024/04/03 03:08:58;;;;;;;8.90;2.20;;;;;;;;;;2073942;28;20376;-75
2024/04/03 03:09:59;;;;;;;4.65;1.88;;;;;;;;;;2073181;28;20026;-71
2024/04/03 03:11:01;;;;;;;7.18;1.98;;;;;;;;;;2074009;28;20037;-72
2024/04/03 03:12:05;;;;;;;8.25;2.15;;;;;;;;;;2073593;28;20494;-73
2024/04/03 03:13:07;;;;;;;6.20;1.77;;;;;;;;;;2072184;28;20025;-73
2024/04/03 03:14:08;;;;;;;9.10;2.00;;;;;;;;;;2074011;28;20029;-74
2024/04/03 03:15:10;;;;;;;11.38;2.88;;;;;;;;;;2073612;28;20469;-75
2024/04/03 03:16:11;;;;;;;9.50;2.60;;;;;;;;;;2073994;28;20033;-72
2024/04/03 03:17:12;;;;;;;11.35;3.10;;;;;;;;;;2073897;28;20025;-72
2024/04/03 03:18:14;;;;;;;8.02;2.72;;;;;;;;;;2073740;28;20041;-72
2024/04/03 03:19:15;;;;;;;9.52;2.10;;;;;;;;;;2071959;28;20042;-71
2024/04/03 03:20:16;;;;;;;8.50;2.65;;;;;;;;;;2070636;28;20410;-69
2024/04/03 03:21:19;;;;;;;11.55;2.97;;;;;;;;;;2065146;28;20397;-69
2024/04/03 03:22:20;;;;;;;7.10;2.58;;;;;;;;;;2073010;28;20032;-70
2024/04/03 03:23:22;;;;;;;8.77;2.25;;;;;;;;;;2063707;28;20023;-71
2024/04/03 03:24:24;;;;;;;9.50;2.28;;;;;;;;;;2069443;28;20383;-71
2024/04/03 03:25:25;;;;;;;7.10;2.30;;;;;;;;;;2069556;28;20100;-71
2024/04/03 03:26:26;;;;;;;7.80;2.85;;;;;;;;;;2070491;28;20035;-71
2024/04/03 03:27:28;;;;;;;9.02;2.75;;;;;;;;;;2068037;28;20058;-73
2024/04/03 03:28:29;;;;;;;11.05;3.22;;;;;;;;;;2070607;28;20049;-72
2024/04/03 03:29:31;;;;;;;5.88;3.03;;;;;;;;;;2068754;28;20032;-73
2024/04/03 03:30:32;;;;;;;8.30;3.08;;;;;;;;;;2070769;28;20533;-73
2024/04/03 03:31:34;;;;;;;9.05;3.08;;;;;;;;;;2070626;28;20032;-72
2024/04/03 03:32:35;;;;;;;11.57;2.78;;;;;;;;;;2071082;28;20049;-72
2024/04/03 03:33:37;;;;;;;10.00;3.00;;;;;;;;;;2072508;28;20406;-73
2024/04/03 03:34:38;;;;;;;7.35;2.90;;;;;;;;;;2072550;28;20064;-72
2024/04/03 03:35:40;;;;;;;5.43;2.67;;;;;;;;;;2072435;28;20018;-72
2024/04/03 03:36:41;;;;;;;8.35;3.08;;;;;;;;;;2071291;28;20100;-73
2024/04/03 03:37:42;;;;;;;11.02;3.58;;;;;;;;;;2072705;28;20022;-73
2024/04/03 03:38:44;;;;;;;8.43;3.10;;;;;;;;;;2072483;28;20030;-73
2024/04/03 03:39:45;;;;;;;7.70;3.13;;;;;;;;;;2072068;28;20109;-73
2024/04/03 03:40:47;;;;;;;8.82;3.25;;;;;;;;;;2074109;28;20033;-72
2024/04/03 03:41:48;;;;;;;11.10;3.70;;;;;;;;;;2073987;28;20025;-73
2024/04/03 03:42:50;;;;;;;4.95;2.85;;;;;;;;;;2074286;28;20022;-73
2024/04/03 03:43:51;;;;;;;9.27;3.22;;;;;;;;;;2074611;28;20029;-72
2024/04/03 03:44:52;;;;;;;13.05;3.20;;;;;;;;;;2074834;28;20041;-72
2024/04/03 03:45:54;;;;;;;7.63;2.80;;;;;;;;;;2074163;28;20128;-72
2024/04/03 03:46:55;;;;;;;9.63;3.28;;;;;;;;;;2073871;28;20453;-73
2024/04/03 03:47:56;;;;;;;11.07;3.13;;;;;;;;;;2073660;28;20129;-74
2024/04/03 03:52:58;;;;;;;6.00;2.17;;;;;;;;;;2070738;28;20490;-72
2024/04/03 03:54:00;;;;;;;6.28;2.08;;;;;;;;;;2073360;28;20057;-73
2024/04/03 03:55:02;;;;;;;8.68;2.25;;;;;;;;;;2072166;28;20017;-73
2024/04/03 03:56:10;;;;;;;8.65;2.30;;;;;;;;;;2070337;28;20037;-72
2024/04/03 03:57:11;;;;;;;7.57;2.67;;;;;;;;;;2071701;28;20084;-72
2024/04/03 03:58:12;;;;;;;4.88;2.25;;;;;;;;;;2072147;28;20066;-71
2024/04/03 03:59:16;;;;;;;6.65;2.28;;;;;;;;;;2071413;28;20022;-72
2024/04/03 04:00:17;;;;;;;5.78;2.00;;;;;;;;;;2073489;28;20018;-71
2024/04/03 04:01:18;;;;;;;7.82;2.30;;;;;;;;;;2073334;28;20048;-72
2024/04/03 04:02:20;;;;;;;8.25;2.28;;;;;;;;;;2073424;28;20104;-70
2024/04/03 04:03:21;;;;;;;9.05;2.00;;;;;;;;;;2073465;28;20032;-71
2024/04/03 04:04:23;;;;;;;6.47;2.20;;;;;;;;;;2073471;28;20026;-72
2024/04/03 04:05:24;;;;;;;5.68;2.00;;;;;;;;;;2073310;28;20105;-71
2024/04/03 04:06:26;;;;;;;8.32;1.70;;;;;;;;;;2073486;28;20026;-72
2024/04/03 04:07:27;;;;;;;8.25;1.85;;;;;;;;;;2072870;28;20021;-72
2024/04/03 04:08:29;;;;;;;8.35;2.35;;;;;;;;;;2072644;28;20038;-71
2024/04/03 04:09:31;;;;;;;6.78;2.25;;;;;;;;;;2072715;28;20029;-71
2024/04/03 04:10:32;;;;;;;7.10;2.33;;;;;;;;;;2073177;28;20112;-72
2024/04/03 04:11:34;;;;;;;6.00;2.00;;;;;;;;;;2070838;28;20021;-72
2024/04/03 04:12:35;;;;;;;6.97;2.35;;;;;;;;;;2073013;28;20462;-72
2024/04/03 04:13:36;;;;;;;6.35;2.33;;;;;;;;;;2073377;28;20022;-72
2024/04/03 04:14:39;;;;;;;3.80;1.83;;;;;;;;;;2073202;28;20431;-71
2024/04/03 04:15:40;;;;;;;9.15;2.70;;;;;;;;;;2073332;28;20485;-72
2024/04/03 04:16:42;;;;;;;5.57;1.73;;;;;;;;;;2073368;28;20052;-72
2024/04/03 04:17:44;;;;;;;6.03;1.52;;;;;;;;;;2071423;28;20117;-71
2024/04/03 04:18:46;;;;;;;5.80;1.60;;;;;;;;;;2072781;28;20018;-72
2024/04/03 04:19:47;;;;;;;4.00;1.52;;;;;;;;;;2073287;28;20080;-73
2024/04/03 04:20:55;;;;;;;3.95;1.42;;;;;;;;;;2073446;28;20022;-73
2024/04/03 04:21:56;;;;;;;7.22;1.45;;;;;;;;;;2071667;28;20022;-73
2024/04/03 04:22:58;;;;;;;7.70;1.60;;;;;;;;;;2073507;28;20030;-73
2024/04/03 04:23:59;;;;;;;4.35;1.73;;;;;;;;;;2073214;28;20006;-72
2024/04/03 04:25:02;;;;;;;7.50;2.15;;;;;;;;;;2073177;28;20565;-72
2024/04/03 04:26:06;;;;;;;4.95;1.30;;;;;;;;;;2070612;28;20203;-72
2024/04/03 04:27:08;;;;;;;5.10;1.58;;;;;;;;;;2073338;28;20018;-72
2024/04/03 04:28:09;;;;;;;4.78;1.38;;;;;;;;;;2073195;28;20039;-72
2024/04/03 04:29:10;;;;;;;2.08;0.93;;;;;;;;;;2073249;28;20528;-72
2024/04/03 04:30:12;;;;;;;5.45;1.35;;;;;;;;;;2072831;28;20034;-72
2024/04/03 04:31:13;;;;;;;7.60;1.58;;;;;;;;;;2070112;28;20124;-72
2024/04/03 04:32:15;;;;;;;6.97;1.67;;;;;;;;;;2073257;28;20490;-71
2024/04/03 04:33:16;;;;;;;4.50;1.60;;;;;;;;;;2073236;28;20055;-73
2024/04/03 04:34:18;;;;;;;2.90;1.38;;;;;;;;;;2073214;28;20447;-74
2024/04/03 04:35:19;;;;;;;6.97;1.48;;;;;;;;;;2073148;28;20022;-72
2024/04/03 04:36:23;;;;;;;5.50;1.63;;;;;;;;;;2073231;28;20455;-72
2024/04/03 04:37:25;;;;;;;7.90;2.00;;;;;;;;;;2066483;28;20014;-77
2024/04/03 04:38:27;;;;;;;6.35;1.35;;;;;;;;;;2071607;28;20036;-73
2024/04/03 04:39:28;;;;;;;5.35;1.83;;;;;;;;;;2072484;28;20026;-73
2024/04/03 04:40:30;;;;;;;6.05;1.60;;;;;;;;;;2071369;28;20112;-73
2024/04/03 04:41:31;;;;;;;3.85;1.17;;;;;;;;;;2073210;28;20025;-73
2024/04/03 04:42:32;;;;;;;6.05;1.70;;;;;;;;;;2073074;28;20026;-72
2024/04/03 04:43:34;;;;;;;5.53;1.90;;;;;;;;;;2073254;28;20083;-73
2024/04/03 04:44:35;;;;;;;5.50;1.65;;;;;;;;;;2073104;28;20046;-73
2024/04/03 04:45:37;;;;;;;5.65;1.73;;;;;;;;;;2071813;28;20038;-73
2024/04/03 04:46:38;;;;;;;4.07;1.63;;;;;;;;;;2072172;28;20028;-75
2024/04/03 04:47:40;;;;;;;8.73;1.73;;;;;;;;;;2068830;28;20372;-73
2024/04/03 04:48:41;;;;;;;4.82;1.27;;;;;;;;;;2072843;28;20014;-74
2024/04/03 04:49:42;;;;;;;6.45;1.58;;;;;;;;;;2073133;28;20022;-74
2024/04/03 04:50:51;;;;;;;5.03;1.55;;;;;;;;;;2070594;28;20087;-73
2024/04/03 04:51:52;;;;;;;5.97;1.60;;;;;;;;;;2073152;28;20045;-73
2024/04/03 04:52:53;;;;;;;5.40;1.10;;;;;;;;;;2075337;28;20031;-73
2024/04/03 04:53:55;;;;;;;3.88;1.35;;;;;;;;;;2071154;28;20057;-72
2024/04/03 04:54:57;;;;;;;4.80;1.27;;;;;;;;;;2072435;28;20034;-69
2024/04/03 04:56:09;;;;;;;3.70;1.38;;;;;;;;;;2069265;28;20061;-74
2024/04/03 04:57:14;;;;;;;4.45;1.38;;;;;;;;;;2070805;28;20026;-69
2024/04/03 04:58:17;;;;;;;7.90;1.80;;;;;;;;;;2068421;28;20026;-70
2024/04/03 04:59:18;;;;;;;5.47;1.40;;;;;;;;;;2067066;28;20044;-70
2024/04/03 05:00:20;;;;;;;6.88;1.40;;;;;;;;;;2072536;28;20026;-73
2024/04/03 05:01:21;;;;;;;4.75;1.30;;;;;;;;;;2069110;28;20096;-73
2024/04/03 05:02:23;;;;;;;5.45;1.60;;;;;;;;;;2073626;28;20160;-74
2024/04/03 05:03:24;;;;;;;5.45;1.58;;;;;;;;;;2076266;28;20041;-71
2024/04/03 05:04:26;;;;;;;6.00;1.85;;;;;;;;;;2071595;28;20463;-71
2024/04/03 05:05:32;;;;;;;4.68;1.58;;;;;;;;;;2069976;28;20069;-72
2024/04/03 05:06:33;;;;;;;5.03;1.50;;;;;;;;;;2071669;28;20510;-69
2024/04/03 05:07:35;;;;;;;4.95;1.75;;;;;;;;;;2068112;28;20558;-70
2024/04/03 05:08:36;;;;;;;6.28;1.58;;;;;;;;;;2071941;28;20092;-70
2024/04/03 05:09:37;;;;;;;6.60;1.65;;;;;;;;;;2070440;28;20544;-71
2024/04/03 05:10:40;;;;;;;8.15;1.45;;;;;;;;;;2070416;28;20038;-69
2024/04/03 05:11:41;;;;;;;6.57;1.25;;;;;;;;;;2071708;28;20025;-69
2024/04/03 05:12:42;;;;;;;5.90;1.40;;;;;;;;;;2070241;28;20010;-69
2024/04/03 05:13:45;;;;;;;5.00;1.23;;;;;;;;;;2069762;28;20093;-69
2024/04/03 05:14:46;;;;;;;4.53;1.40;;;;;;;;;;2068999;28;20479;-68
2024/04/03 05:15:47;;;;;;;6.70;1.40;;;;;;;;;;2068942;28;20018;-69
2024/04/03 05:16:49;;;;;;;5.25;1.45;;;;;;;;;;2076507;28;20540;-69
2024/04/03 05:17:50;;;;;;;4.55;1.63;;;;;;;;;;2069775;28;20034;-70
2024/04/03 05:18:52;;;;;;;3.65;1.58;;;;;;;;;;2070653;28;20034;-70
2024/04/03 05:19:53;;;;;;;4.30;1.00;;;;;;;;;;2064166;28;20706;-70
2024/04/03 05:20:55;;;;;;;6.50;1.58;;;;;;;;;;2071440;28;20037;-70
2024/04/03 05:21:56;;;;;;;5.13;1.38;;;;;;;;;;2069677;28;20014;-70
2024/04/03 05:22:59;;;;;;;5.57;1.25;;;;;;;;;;2070306;28;20116;-69
2024/04/03 05:24:00;;;;;;;8.00;1.70;;;;;;;;;;2071406;28;20018;-70
2024/04/03 05:25:02;;;;;;;4.40;1.20;;;;;;;;;;2071603;28;20034;-70
2024/04/03 05:26:04;;;;;;;4.15;1.10;;;;;;;;;;2068240;28;20037;-69
2024/04/03 05:27:05;;;;;;;7.05;1.60;;;;;;;;;;2070988;28;20022;-70
2024/04/03 05:28:07;;;;;;;7.82;1.85;;;;;;;;;;2071334;28;20017;-73
2024/04/03 05:29:08;;;;;;;10.38;2.55;;;;;;;;;;2070954;28;20024;-70
2024/04/03 05:30:10;;;;;;;7.32;2.00;;;;;;;;;;2071013;28;20529;-70
2024/04/03 05:31:15;;;;;;;6.10;1.52;;;;;;;;;;2068755;28;20021;-71
2024/04/03 05:32:16;;;;;;;6.45;1.75;;;;;;;;;;2066971;28;20030;-70
2024/04/03 05:33:18;;;;;;;8.73;2.05;;;;;;;;;;2067707;28;20081;-71
2024/04/03 05:34:19;;;;;;;6.13;1.98;;;;;;;;;;2071272;28;20062;-70
2024/04/03 05:35:21;;;;;;;6.18;1.98;;;;;;;;;;2068542;28;20748;-72
2024/04/03 05:36:22;;;;;;;7.75;2.00;;;;;;;;;;2070474;28;20076;-70
2024/04/03 05:37:24;;;;;;;7.55;2.20;;;;;;;;;;2071862;28;20033;-70
2024/04/03 05:38:26;;;;;;;7.47;2.40;;;;;;;;;;2070960;28;20021;-70
2024/04/03 05:39:28;;;;;;;6.43;2.20;;;;;;;;;;2070256;28;20457;-69
2024/04/03 05:40:31;;;;;;;7.35;2.55;;;;;;;;;;2070817;28;20075;-71
2024/04/03 05:41:35;;;;;;;5.93;2.35;;;;;;;;;;2068527;28;20101;-70
2024/04/03 05:42:37;;;;;;;6.15;2.08;;;;;;;;;;2072279;28;20553;-69
2024/04/03 05:43:38;;;;;;;4.35;1.58;;;;;;;;;;2070572;28;20057;-70
2024/04/03 05:44:40;;;;;;;8.85;1.95;;;;;;;;;;2071519;28;20093;-71
2024/04/03 05:45:41;;;;;;;4.22;1.63;;;;;;;;;;2071518;28;20490;-69
2024/04/03 05:46:42;;;;;;;7.00;1.40;;;;;;;;;;2070050;28;20113;-70
2024/04/03 05:47:44;;;;;;;10.77;2.20;;;;;;;;;;2070403;28;20052;-68
2024/04/03 05:48:45;;;;;;;5.78;1.73;;;;;;;;;;2071301;28;20042;-64
2024/04/03 05:49:47;;;;;;;6.18;1.52;;;;;;;;;;2072119;28;20483;-67
2024/04/03 05:51:04;;;;;;;5.15;1.52;;;;;;;;;;2070949;28;20029;-67
2024/04/03 05:52:06;;;;;;;5.93;1.75;;;;;;;;;;2070967;28;20040;-68
2024/04/03 05:53:07;;;;;;;7.13;1.58;;;;;;;;;;2071682;28;20034;-68
2024/04/03 05:54:09;;;;;;;8.38;1.90;;;;;;;;;;2071468;28;20030;-71
2024/04/03 05:55:10;;;;;;;5.95;1.30;;;;;;;;;;2079504;28;20025;-66
2024/04/03 05:56:11;;;;;;;4.93;1.40;;;;;;;;;;2078318;28;20024;-68
2024/04/03 05:57:13;;;;;;;7.15;1.63;;;;;;;;;;2066339;28;20028;-70
2024/04/03 05:58:15;;;;;;;3.72;1.15;;;;;;;;;;2067186;28;20031;-66
2024/04/03 05:59:16;;;;;;;3.42;1.20;;;;;;;;;;2068303;28;20014;-71
2024/04/03 06:00:18;;;;;;;3.55;1.67;;;;;;;;;;2069990;28;20034;-69
2024/04/03 06:01:20;;;;;;;4.10;1.40;;;;;;;;;;2069613;28;20046;-71
2024/04/03 06:02:21;;;;;;;5.88;1.20;;;;;;;;;;2070785;28;20061;-67
2024/04/03 06:03:23;;;;;;;6.22;1.52;;;;;;;;;;2071226;28;20160;-70
2024/04/03 06:04:24;;;;;;;6.15;1.90;;;;;;;;;;2072310;28;20038;-66
2024/04/03 06:05:25;;;;;;;5.35;1.42;;;;;;;;;;2072602;28;20089;-67
2024/04/03 06:06:28;;;;;;;5.03;1.40;;;;;;;;;;2072927;28;20026;-70
2024/04/03 06:07:29;;;;;;;5.65;1.80;;;;;;;;;;2073116;28;20010;-69
2024/04/03 06:08:30;;;;;;;7.95;1.48;;;;;;;;;;2071988;28;20100;-71
2024/04/03 06:09:32;;;;;;;5.30;1.65;;;;;;;;;;2072086;28;20386;-70
2024/04/03 06:10:35;;;;;;;8.13;1.42;;;;;;;;;;2072253;28;20042;-68
2024/04/03 06:11:37;;;;;;;7.18;1.90;;;;;;;;;;2070286;28;20403;-68
2024/04/03 06:12:38;;;;;;;4.50;1.50;;;;;;;;;;2073058;28;20112;-70
2024/04/03 06:13:40;;;;;;;5.68;1.52;;;;;;;;;;2071710;28;20030;-69
2024/04/03 06:14:41;;;;;;;6.13;1.50;;;;;;;;;;2073636;28;20018;-69